createdAt,value
2023-05-03T00:01:33.427Z,101033.29
2023-05-03T00:04:24.326Z,101035.02
2023-05-03T00:06:58.727Z,101036.35
2023-05-03T00:10:07.452Z,101037.77
2023-05-03T00:13:15.294Z,101038.13
2023-05-03T00:15:55.173Z,101039.39
2023-05-03T00:19:37.409Z,101039.58
2023-05-03T00:22:31.982Z,101038.38
2023-05-03T00:25:05.083Z,101038.40
2023-05-03T00:27:39.859Z,101034.33
2023-05-03T00:30:28.661Z,101034.65
2023-05-03T00:33:20.580Z,101036.73
2023-05-03T00:36:00.498Z,101036.23
2023-05-03T00:38:37.254Z,101037.81
2023-05-03T00:41:16.175Z,101040.39
2023-05-03T00:43:57.335Z,101038.48
2023-05-03T00:46:39.923Z,101038.95
2023-05-03T00:49:12.270Z,101035.98
2023-05-03T00:51:52.272Z,101040.13
2023-05-03T00:54:31.154Z,101036.75
2023-05-03T00:57:12.621Z,101034.76
2023-05-03T00:59:46.905Z,101030.85
2023-05-03T01:02:24.962Z,101037.08
2023-05-03T01:04:59.408Z,101040.31
2023-05-03T01:08:10.720Z,101035.42
2023-05-03T01:11:15.510Z,101038.57
2023-05-03T01:14:05.982Z,101039.67
2023-05-03T01:16:54.115Z,101030.85
2023-05-03T01:19:28.117Z,101032.46
2023-05-03T01:22:47.344Z,101025.69
2023-05-03T01:25:17.358Z,101027.92
2023-05-03T01:27:55.583Z,101027.94
2023-05-03T01:30:50.497Z,101025.90
2023-05-03T01:34:43.930Z,101024.04
2023-05-03T01:37:21.783Z,101022.30
2023-05-03T01:40:06.365Z,101019.36
2023-05-03T01:42:40.868Z,101020.36
2023-05-03T01:50:14.970Z,101016.92
2023-05-03T01:52:54.547Z,101018.84
2023-05-03T01:55:30.472Z,101016.27
2023-05-03T01:58:04.711Z,101012.46
2023-05-03T02:00:46.813Z,101017.41
2023-05-03T02:03:42.517Z,101013.00
2023-05-03T02:06:29.495Z,101016.96
2023-05-03T02:09:14.244Z,101013.89
2023-05-03T02:12:17.597Z,101016.65
2023-05-03T02:15:00.657Z,101017.88
2023-05-03T02:17:51.747Z,101021.92
2023-05-03T02:20:32.400Z,101023.77
2023-05-03T02:23:09.698Z,101030.23
2023-05-03T02:25:43.908Z,101030.35
2023-05-03T02:28:34.073Z,101028.09
2023-05-03T02:31:11.948Z,101030.99
2023-05-03T02:34:28.310Z,101029.13
2023-05-03T02:37:14.828Z,101029.48
2023-05-03T02:42:09.680Z,101028.47
2023-05-03T02:44:37.249Z,101029.58
2023-05-03T02:47:04.657Z,101028.19
2023-05-03T02:49:32.594Z,101027.59
2023-05-03T02:51:59.881Z,101030.78
2023-05-03T02:54:27.132Z,101031.63
2023-05-03T02:56:59.341Z,101030.41
2023-05-03T02:59:26.446Z,101028.02
2023-05-03T03:01:54.107Z,101031.16
2023-05-03T03:04:21.722Z,101032.55
2023-05-03T03:06:49.063Z,101030.67
2023-05-03T03:09:17.031Z,101029.52
2023-05-03T03:11:44.883Z,101034.84
2023-05-03T03:14:13.420Z,101033.27
2023-05-03T03:16:41.431Z,101038.89
2023-05-03T03:19:08.784Z,101040.01
2023-05-03T03:21:37.510Z,101041.68
2023-05-03T03:24:05.285Z,101047.02
2023-05-03T03:26:32.737Z,101032.72
2023-05-03T03:29:03.873Z,101053.65
2023-05-03T03:31:33.361Z,101055.41
2023-05-03T03:34:01.883Z,101053.81
2023-05-03T03:36:31.023Z,101046.55
2023-05-03T03:38:58.356Z,101053.48
2023-05-03T03:41:27.719Z,101052.70
2023-05-03T03:43:55.923Z,101055.28
2023-05-03T03:46:23.272Z,101051.11
2023-05-03T03:48:51.246Z,101050.40
2023-05-03T03:51:20.320Z,101047.36
2023-05-03T03:53:48.128Z,101048.05
2023-05-03T03:56:19.256Z,101049.27
2023-05-03T03:58:47.712Z,101048.67
2023-05-03T04:01:15.117Z,101050.90
2023-05-03T04:03:46.562Z,101051.94
2023-05-03T04:06:14.412Z,101036.39
2023-05-03T04:08:44.648Z,101050.48
2023-05-03T04:11:17.458Z,101052.98
2023-05-03T04:13:49.964Z,101057.62
2023-05-03T04:16:21.325Z,101056.45
2023-05-03T04:18:50.266Z,101058.16
2023-05-03T04:21:18.712Z,101059.06
2023-05-03T04:23:52.735Z,101061.77
2023-05-03T04:26:31.153Z,101063.52
2023-05-03T04:29:04.729Z,101066.88
2023-05-03T04:31:33.220Z,101065.61
2023-05-03T04:34:03.879Z,101066.42
2023-05-03T04:36:37.257Z,101064.52
2023-05-03T04:39:50.381Z,101064.30
2023-05-03T04:42:54.531Z,101066.40
2023-05-03T04:46:28.186Z,101067.96
2023-05-03T04:50:40.919Z,101064.21
2023-05-03T04:53:37.083Z,101065.88
2023-05-03T04:56:37.446Z,101070.48
2023-05-03T04:59:32.510Z,101065.41
2023-05-03T05:03:19.814Z,101061.64
2023-05-03T05:06:38.525Z,101062.98
2023-05-03T05:09:51.798Z,101065.58
2023-05-03T05:16:45.259Z,101066.73
2023-05-03T05:20:58.075Z,101066.89
2023-05-03T05:23:51.135Z,101064.82
2023-05-03T05:27:11.881Z,101065.17
2023-05-03T05:33:55.503Z,101057.02
2023-05-03T05:40:42.199Z,101056.45
2023-05-03T05:43:55.206Z,101057.33
2023-05-03T05:50:18.527Z,101051.29
2023-05-03T05:54:44.513Z,101052.80
2023-05-03T05:58:45.720Z,101048.58
2023-05-03T06:08:51.979Z,101033.55
2023-05-03T06:20:01.213Z,101043.52
2023-05-03T06:27:16.227Z,101042.13
2023-05-03T06:43:10.402Z,101044.24
2023-05-03T06:54:33.321Z,101049.67
2023-05-03T07:01:37.998Z,101043.27
2023-05-03T07:08:03.916Z,101042.82
2023-05-03T07:18:20.362Z,101042.23
2023-05-03T07:21:30.558Z,101045.72
2023-05-03T07:28:46.304Z,101043.13
2023-05-03T07:32:17.945Z,101041.63
2023-05-03T07:43:55.877Z,101047.02
2023-05-03T07:51:19.502Z,101051.21
2023-05-03T07:59:37.907Z,101036.00
2023-05-03T08:02:57.327Z,101040.27
2023-05-03T08:07:00.678Z,101044.14
2023-05-03T08:10:31.142Z,101026.80
2023-05-03T08:14:05.012Z,101036.84
2023-05-03T08:21:41.865Z,101022.47
2023-05-03T08:29:08.605Z,101040.17
2023-05-03T08:32:59.634Z,101036.08
2023-05-03T08:36:20.188Z,101028.06
2023-05-03T08:39:07.049Z,101036.02
2023-05-03T08:41:59.731Z,101017.02
2023-05-03T08:45:31.097Z,101021.62
2023-05-03T08:48:31.720Z,101022.92
2023-05-03T08:51:29.546Z,101011.26
2023-05-03T08:54:47.189Z,101015.16
2023-05-03T08:57:31.453Z,100990.05
2023-05-03T09:00:14.113Z,101004.93
2023-05-03T09:03:08.411Z,101001.52
2023-05-03T09:06:03.010Z,100994.73
2023-05-03T09:09:08.232Z,100997.16
2023-05-03T09:12:03.402Z,101001.66
2023-05-03T09:19:28.199Z,100983.64
2023-05-03T09:22:55.882Z,100980.91
2023-05-03T09:30:51.807Z,100986.05
2023-05-03T09:33:55.836Z,100989.42
2023-05-03T09:37:40.744Z,100981.36
2023-05-03T09:41:16.766Z,100986.89
2023-05-03T09:44:54.587Z,100983.34
2023-05-03T09:47:59.075Z,100978.33
2023-05-03T09:51:09.515Z,100977.54
2023-05-03T09:59:24.294Z,100978.68
2023-05-03T10:07:55.517Z,100965.80
2023-05-03T10:10:40.142Z,100966.59
2023-05-03T10:13:18.697Z,100963.80
2023-05-03T10:35:18.336Z,100945.40
2023-05-03T10:38:59.538Z,100941.11
2023-05-03T10:46:41.993Z,100939.75
2023-05-03T10:52:56.732Z,100941.16
2023-05-03T11:00:44.886Z,100940.01
2023-05-03T11:13:50.121Z,100931.23
2023-05-03T11:17:14.813Z,100922.08
2023-05-03T11:21:12.194Z,100924.00
2023-05-03T11:23:55.080Z,100925.84
2023-05-03T11:26:37.802Z,100930.48
2023-05-03T11:34:58.908Z,100911.49
2023-05-03T11:38:40.561Z,100907.72
2023-05-03T11:41:47.849Z,100908.55
2023-05-03T11:49:58.218Z,100902.32
2023-05-03T11:57:48.000Z,100885.52
2023-05-03T12:01:40.634Z,100896.16
2023-05-03T12:04:45.623Z,100892.83
2023-05-03T12:07:58.887Z,100886.55
2023-05-03T12:16:34.383Z,100877.49
2023-05-03T12:21:28.222Z,100875.36
2023-05-03T12:44:48.245Z,100835.30
2023-05-03T12:55:25.272Z,100841.73
2023-05-03T12:58:49.927Z,100835.88
2023-05-03T13:05:45.778Z,100828.39
2023-05-03T13:18:22.936Z,100834.94
2023-05-03T13:21:17.303Z,100821.81
2023-05-03T13:24:19.319Z,100812.60
2023-05-03T13:30:59.368Z,100816.21
2023-05-03T16:59:03.021Z,100832.92
2023-05-03T17:02:14.173Z,100833.77
2023-05-03T17:05:29.737Z,100837.73
2023-05-03T17:09:14.626Z,100841.02
2023-05-03T17:22:15.706Z,100856.25
2023-05-03T17:25:20.229Z,100860.20
2023-05-03T17:33:49.951Z,100866.46
2023-05-03T17:46:01.309Z,100863.89
2023-05-03T17:48:58.123Z,100882.15
2023-05-03T18:01:13.829Z,100883.65
2023-05-03T18:04:44.462Z,100880.95
2023-05-03T18:16:58.165Z,100887.58
2023-05-03T18:38:44.480Z,100895.91
2023-05-03T18:51:11.209Z,100896.64
2023-05-03T18:58:58.151Z,100901.98
2023-05-03T19:16:31.413Z,100902.92
2023-05-03T19:19:31.864Z,100911.64
2023-05-03T19:26:58.335Z,100910.75
2023-05-03T19:38:43.755Z,100894.38
2023-05-03T19:42:31.845Z,100908.38
2023-05-03T19:46:21.904Z,100914.98
2023-05-03T19:49:16.876Z,100915.59
2023-05-03T19:52:08.767Z,100918.02
2023-05-03T19:59:54.189Z,100920.20
2023-05-03T20:13:12.298Z,100919.63
2023-05-03T20:16:40.557Z,100921.77
2023-05-03T20:27:50.260Z,100921.48
2023-05-03T20:30:52.439Z,100919.92
2023-05-03T20:34:53.149Z,100920.75
2023-05-03T20:42:47.674Z,100919.05
2023-05-03T20:45:48.335Z,100916.71
2023-05-03T20:49:48.355Z,100911.80
2023-05-03T20:53:31.897Z,100915.10
2023-05-03T20:59:59.484Z,100916.39
2023-05-03T21:03:07.153Z,100915.66
2023-05-03T21:10:47.197Z,100915.39
2023-05-03T21:13:52.948Z,100920.65
2023-05-03T21:16:47.687Z,100917.95
2023-05-03T21:19:41.003Z,100923.03
2023-05-03T21:22:33.724Z,100918.12
2023-05-03T21:26:12.364Z,100920.70
2023-05-03T21:29:57.704Z,100910.25
2023-05-03T21:48:13.486Z,100924.95
2023-05-03T21:51:33.474Z,100923.13
2023-05-03T21:54:26.582Z,100925.05
2023-05-03T21:57:23.199Z,100922.33
2023-05-03T22:00:31.120Z,100918.85
2023-05-03T22:03:23.289Z,100920.11
2023-05-03T22:06:09.904Z,100922.61
2023-05-03T22:09:04.378Z,100925.44
2023-05-03T22:12:22.611Z,100922.39
2023-05-03T22:15:12.790Z,100925.45
2023-05-03T22:18:06.954Z,100923.97
2023-05-03T22:20:48.359Z,100925.50
2023-05-03T22:23:30.507Z,100928.65
2023-05-03T22:26:11.051Z,100929.75
2023-05-03T22:29:04.454Z,100927.66
2023-05-03T22:32:16.004Z,100933.80
2023-05-03T22:34:55.950Z,100933.09
2023-05-03T22:37:50.962Z,100940.22
2023-05-03T22:40:33.208Z,100936.84
2023-05-03T22:43:12.068Z,100934.73
2023-05-03T22:45:50.231Z,100932.85
2023-05-03T22:48:36.585Z,100932.67
2023-05-03T22:51:13.974Z,100932.64
2023-05-03T22:54:05.290Z,100929.56
2023-05-03T22:57:47.313Z,100934.38
2023-05-03T23:01:03.077Z,100935.44
2023-05-03T23:03:54.639Z,100938.73
2023-05-03T23:07:01.705Z,100936.50
2023-05-03T23:10:10.682Z,100931.94
2023-05-03T23:13:14.616Z,100932.24
2023-05-03T23:15:51.243Z,100931.46
2023-05-03T23:18:28.679Z,100932.02
2023-05-03T23:21:39.854Z,100931.90
2023-05-03T23:24:13.677Z,100929.46
2023-05-03T23:26:54.847Z,100933.19
2023-05-03T23:29:32.323Z,100936.17
2023-05-03T23:32:12.165Z,100931.59
2023-05-03T23:34:53.703Z,100934.77
2023-05-03T23:37:24.705Z,100933.66
2023-05-03T23:40:01.626Z,100929.02
2023-05-03T23:42:44.635Z,100927.88
2023-05-03T23:45:28.260Z,100925.25
2023-05-03T23:48:07.895Z,100922.34
2023-05-03T23:50:41.774Z,100918.80
2023-05-03T23:53:25.267Z,100914.92
2023-05-03T23:55:59.906Z,100914.09
2023-05-03T23:58:58.658Z,100915.06
